Flight Track Log - Related Links

Times and Time Zones

All times are in EDT time to prevent confusion due to time zone crossing. See the ASQ6115 flight status page for this flight to view local times or setup timezone preferences in your user account.

Time Position Orientation Groundspeed Altitude Reporting Facility
EDT Latitude Longitude Course Direction KTS MPH feet Rate Location/Type
Tue 09:40:30 PM 43.1717 -89.3197 162° South 180 207 3,800  Level Chicago Center
Tue 09:41:32 PM 43.1367 -89.2453 123° Southeast 248 285 7,100 3,171 Climbing Chicago Center
Tue 09:42:00 PM 42.9383 -89.2486 164° South  Level FlightAware Approximate
Tue 09:42:33 PM 43.0614 -89.2239 168° South 276 318 10,300  Level Chicago Center
Tue 09:43:00 PM 42.8739 -89.2239 144° Southeast  Level FlightAware Approximate
Tue 09:43:35 PM 42.9756 -89.2006 169° South 315 362 11,100  Level Chicago Center
Tue 09:44:00 PM 42.8090 -89.1981 170° South  Level FlightAware Approximate
Tue 09:44:37 PM 42.8942 -89.1161 143° Southeast 364 419 11,100  Level Chicago Center
Tue 09:45:00 PM 42.7422 -89.1798 162° South  Level FlightAware Approximate
Tue 09:45:39 PM 42.8164 -89.0219 138° Southeast 373 429 11,100  Level Chicago Center
Tue 09:46:40 PM 42.7383 -88.9294 139° Southeast 373 429 11,100  Level Chicago Center
Tue 09:47:42 PM 42.6494 -88.8244 139° Southeast 366 421 11,100  Level Chicago Center
Tue 09:48:44 PM 42.5700 -88.7303 139° Southeast 376 433 11,100 -194 Level Chicago Center
Tue 09:49:46 PM 42.4919 -88.6367 138° Southeast 377 434 10,700 -488 Descending Chicago Center
Tue 09:50:47 PM 42.4192 -88.5514 139° Southeast 352 405 10,100 -341 Descending Chicago Center
Tue 09:51:49 PM 42.3647 -88.4719 133° Southeast 304 350 10,000 -629 Descending Chicago Center
Tue 09:52:51 PM 42.3281 -88.3656 115° Southeast 310 357 8,800 -1,268 Descending Chicago Center
Tue 09:53:52 PM 42.2792 -88.2875 130° Southeast 279 321 7,400 -878 Descending Chicago Center
Tue 09:54:54 PM 42.2269 -88.2000 129° Southeast 257 296 7,000 -194 Descending Chicago Center
Tue 09:55:56 PM 42.1850 -88.1333 130° Southeast 242 278 7,000  Level Chicago Center
Tue 09:56:57 PM 42.1350 -88.0800 142° Southeast 233 268 7,000  Level Chicago Center
Tue 09:57:29 PM 42.1000 -88.0500 148° Southeast 232 267 7,000  Level Chicago TRACON
Tue 09:58:29 PM 42.1000 -87.9667 90° East 257 296 7,000  Level Chicago TRACON
Tue 09:59:29 PM 42.0833 -87.8667 103° East 254 292 7,000 -400 Level Chicago TRACON
Tue 10:00:29 PM 42.0833 -87.7667 90° East 237 273 6,200 -1,300 Descending Chicago TRACON
Tue 10:01:29 PM 42.0833 -87.6833 90° East 234 269 4,400 -1,100 Descending Chicago TRACON
Tue 10:02:29 PM 42.0833 -87.6000 90° East 228 262 4,000 -200 Descending Chicago TRACON
Tue 10:03:29 PM 42.0833 -87.5167 90° East 230 265 4,000  Level Chicago TRACON
Tue 10:04:29 PM 42.0667 -87.4333 105° East 234 269 4,000  Level Chicago TRACON
Tue 10:05:30 PM 42.0167 -87.4000 154° Southeast 234 269 4,000  Level Chicago TRACON
Tue 10:06:30 PM 41.9833 -87.4500 228° Southwest 184 212 4,000  Level Chicago TRACON
Tue 10:07:30 PM 41.9833 -87.5000 270° West 166 191 4,000  Level Chicago TRACON
Tue 10:08:30 PM 41.9833 -87.5667 270° West 182 209 4,000  Level Chicago TRACON
Tue 10:09:30 PM 41.9833 -87.6333 270° West 182 209 4,000 -250 Level Chicago TRACON
Tue 10:10:30 PM 41.9833 -87.7000 270° West 184 212 3,500 -800 Descending Chicago TRACON
Tue 10:11:30 PM 41.9833 -87.7833 270° West 192 221 2,400 -650 Descending Chicago TRACON
Tue 10:12:30 PM 41.9833 -87.8333 270° West 171 197 2,200 400 Descending Chicago TRACON
Tue 10:13:30 PM 42.0167 -87.8667 323° Northwest 195 224 3,200 947 Climbing Chicago TRACON
Tue 10:14:24 PM 42.0667 -87.8333 26° Northeast 216 249 4,000 400 Climbing Chicago TRACON
Tue 10:15:30 PM 42.0667 -87.7500 90° East 227 261 4,000  Level Chicago TRACON
Tue 10:16:30 PM 42.0667 -87.6667 90° East 225 259 4,000  Level Chicago TRACON
Tue 10:17:30 PM 42.0667 -87.5833 90° East 224 258 4,000  Level Chicago TRACON
Tue 10:18:31 PM 42.0667 -87.5000 90° East 232 267 4,000  Level Chicago TRACON
Tue 10:19:31 PM 42.0000 -87.4833 169° South 222 255 4,000  Level Chicago TRACON
Tue 10:20:31 PM 41.9833 -87.5500 251° West 183 211 4,000  Level Chicago TRACON
Tue 10:21:31 PM 41.9833 -87.6167 270° West 184 212 4,000 -50 Level Chicago TRACON
Tue 10:22:31 PM 41.9833 -87.6833 270° West 185 213 3,900 -600 Descending Chicago TRACON
Tue 10:23:31 PM 41.9833 -87.7500 270° West 193 222 2,800 -1,100 Descending Chicago TRACON

Login

Don't have an account? Register now (free) for customized features, flight alerts, and more!